Miedwie — C6XP5 — position and weather

sailwx.info

Track history (hours):
 
Tides and Currents Weather Stations Pressure Air Temp Water Temp Dewpoint Dewpoint Depression Visibility Wind Speed Wind Dir Waves Ship Positions

Miedwie

Last reported at 2016-Dec-03 10:33 UTC. Time now 2016-Dec-09 02:02 UTC.
Position N 45°47' W 085°50'.

Length 190 m; draft 7.9 m.

Type: Cargo ship. MMSI: 311018300.

Date/timePositionNaut miles runAvg speedWind from/ knotsBaromVisibWave heightAir tempDewpointWater temp
2016-Dec-03 10:33N 45°47' W 085°50'1111.4
2016-Dec-03 09:33N 45°53' W 085°36'1110.9
2016-Dec-03 08:33N 45°53' W 085°20'1111.2
2016-Dec-03 07:33N 45°51' W 085°04'1111.3
2016-Dec-03 06:33N 45°49' W 084°48'1111.1
2016-Dec-03 05:33N 45°45' W 084°33'  
2016-Nov-30 19:12N 43°12' W 079°13'1 1.2
2016-Nov-30 18:32N 43°13' W 079°13'1 0.9
2016-Nov-30 17:34N 43°14' W 079°13'253 8.7
2016-Nov-29 12:32N 45°13' W 074°02'7 6.8
2016-Nov-29 11:33N 45°18' W 073°56'1 0.8
2016-Nov-29 10:33N 45°19' W 073°55'2 2.1
2016-Nov-29 09:33N 45°21' W 073°53'8 8.3
2016-Nov-29 08:33N 45°25' W 073°43'5 5.0
2016-Nov-29 07:28N 45°24' W 073°35'1 1.0
2016-Nov-29 06:26N 45°24' W 073°33'  
Track history (hours):
 
Tides and Currents Weather Stations Pressure Air Temp Water Temp Dewpoint Dewpoint Depression Visibility Wind Speed Wind Dir Waves Ship Positions

Miedwie

Last reported at 2016-Dec-03 10:33 UTC. Time now 2016-Dec-09 02:02 UTC.
Position N 45°47' W 085°50'.

Length 190 m; draft 7.9 m.

Type: Cargo ship. MMSI: 311018300.

Date/timePositionNaut miles runAvg speedWind from/ knotsBaromVisibWave heightAir tempDewpointWater temp
2016-Dec-03 10:33N 45°47' W 085°50'1111.4
2016-Dec-03 09:33N 45°53' W 085°36'1110.9
2016-Dec-03 08:33N 45°53' W 085°20'1111.2
2016-Dec-03 07:33N 45°51' W 085°04'1111.3
2016-Dec-03 06:33N 45°49' W 084°48'1111.1
2016-Dec-03 05:33N 45°45' W 084°33'  
2016-Nov-30 19:12N 43°12' W 079°13'1 1.2
2016-Nov-30 18:32N 43°13' W 079°13'1 0.9
2016-Nov-30 17:34N 43°14' W 079°13'253 8.7
2016-Nov-29 12:32N 45°13' W 074°02'7 6.8
2016-Nov-29 11:33N 45°18' W 073°56'1 0.8
2016-Nov-29 10:33N 45°19' W 073°55'2 2.1
2016-Nov-29 09:33N 45°21' W 073°53'8 8.3
2016-Nov-29 08:33N 45°25' W 073°43'5 5.0
2016-Nov-29 07:28N 45°24' W 073°35'1 1.0
2016-Nov-29 06:26N 45°24' W 073°33'  

Dump ship's entire track history